Time;durP1;ratioP1;P1;durP2;ratioP2;P2;SDS_P1;SDS_P2;PMS_P1;PMS_P2;Temp;Humidity;BMP_temperature;BMP_pressure;BME280_temperature;BME280_humidity;BME280_pressure;Samples;Min_cycle;Max_cycle;Signal;HPM_P1;HPM_P2
2022/06/10 00:00:50;;;;;;;;;;;17.20;99.90;;;;;;4593096;19;19915;-34
2022/06/10 00:02:21;;;;;;;;;;;17.20;99.90;;;;;;4593173;19;19974;-32
2022/06/10 00:03:52;;;;;;;;;;;17.20;99.90;;;;;;4593140;19;19922;-34
2022/06/10 00:05:24;;;;;;;;;;;17.20;99.90;;;;;;4592642;19;19978;-34
2022/06/10 00:06:55;;;;;;;;;;;17.20;99.90;;;;;;4593338;19;19917;-32
2022/06/10 00:08:27;;;;;;;;;;;17.20;99.90;;;;;;4592534;19;19918;-34
2022/06/10 00:09:58;;;;;;;;;;;17.20;99.90;;;;;;4590921;19;19943;-32
2022/06/10 00:11:29;;;;;;;;;;;17.20;99.90;;;;;;4591793;19;19915;-33
2022/06/10 00:13:00;;;;;;;;;;;17.20;99.90;;;;;;4593526;19;19929;-33
2022/06/10 00:14:31;;;;;;;;;;;17.20;99.90;;;;;;4592796;19;19941;-34
2022/06/10 00:16:02;;;;;;;;;;;17.20;99.90;;;;;;4592412;19;20308;-33
2022/06/10 00:17:33;;;;;;;;;;;17.20;99.90;;;;;;4592916;19;19918;-32
2022/06/10 00:19:04;;;;;;;;;;;17.20;99.90;;;;;;4592638;19;20260;-33
2022/06/10 00:20:36;;;;;;;;;;;17.20;99.90;;;;;;4592394;19;19915;-33
2022/06/10 00:22:07;;;;;;;;;;;17.20;99.90;;;;;;4592617;19;19923;-33
2022/06/10 00:23:38;;;;;;;;;;;17.20;99.90;;;;;;4592903;19;19919;-33
2022/06/10 00:25:09;;;;;;;;;;;17.20;99.90;;;;;;4591490;19;19918;-32
2022/06/10 00:26:40;;;;;;;;;;;17.20;99.90;;;;;;4589841;19;20382;-33
2022/06/10 00:28:11;;;;;;;;;;;17.20;99.90;;;;;;4593041;19;19954;-33
2022/06/10 00:29:42;;;;;;;;;;;17.20;99.90;;;;;;4591894;19;19990;-32
2022/06/10 00:31:13;;;;;;;;;;;17.20;99.90;;;;;;4591944;19;19907;-34
2022/06/10 00:32:44;;;;;;;;;;;17.20;99.90;;;;;;4591287;19;19914;-34
2022/06/10 00:34:15;;;;;;;;;;;17.20;99.90;;;;;;4592439;19;20005;-34
2022/06/10 00:35:46;;;;;;;;;;;17.30;99.90;;;;;;4592737;19;19943;-34
2022/06/10 00:37:17;;;;;;;;;;;17.30;99.90;;;;;;4592235;19;19918;-33
2022/06/10 00:38:48;;;;;;;;;;;17.20;99.90;;;;;;4592581;19;19978;-33
2022/06/10 00:40:21;;;;;;;;;;;17.20;99.90;;;;;;4592557;19;20367;-33
2022/06/10 00:41:52;;;;;;;;;;;17.20;99.90;;;;;;4592149;19;20294;-34
2022/06/10 00:43:24;;;;;;;;;;;17.20;99.90;;;;;;4591975;19;19915;-32
2022/06/10 00:44:55;;;;;;;;;;;17.20;99.90;;;;;;4592442;19;19915;-34
2022/06/10 00:46:28;;;;;;;;;;;17.20;99.90;;;;;;4592717;19;19918;-33
2022/06/10 00:47:59;;;;;;;;;;;17.30;99.90;;;;;;4590621;19;19925;-34
2022/06/10 00:49:31;;;;;;;;;;;17.30;99.90;;;;;;4592385;19;19914;-33
2022/06/10 00:51:09;;;;;;;;;;;17.30;99.90;;;;;;4590865;19;19919;-32
2022/06/10 00:52:41;;;;;;;;;;;17.30;99.90;;;;;;4589386;19;20023;-32
2022/06/10 00:54:20;;;;;;;;;;;17.30;99.90;;;;;;4591452;19;19921;-33
2022/06/10 00:55:51;;;;;;;;;;;17.30;99.90;;;;;;4592061;19;19919;-33
2022/06/10 00:57:24;;;;;;;;;;;17.30;99.90;;;;;;4592265;19;20307;-33
2022/06/10 00:58:56;;;;;;;;;;;17.40;99.90;;;;;;4592536;19;19914;-34
2022/06/10 01:00:27;;;;;;;;;;;17.30;99.90;;;;;;4591127;19;19933;-34
2022/06/10 01:02:05;;;;;;;;;;;17.40;99.90;;;;;;4592184;19;19907;-31
2022/06/10 01:05:26;;;;;;;;;;;17.30;99.90;;;;;;4591476;19;19911;-32
2022/06/10 01:06:57;;;;;;;;;;;17.40;99.90;;;;;;4591303;19;19966;-33
2022/06/10 01:08:28;;;;;;;;;;;17.30;99.90;;;;;;4591991;19;19921;-33
2022/06/10 01:10:00;;;;;;;;;;;17.30;99.90;;;;;;4590562;19;19922;-34
2022/06/10 01:12:00;;;;;;;;;;;17.30;99.90;;;;;;4590718;19;20442;-32
2022/06/10 01:13:45;;;;;;;;;;;17.30;99.90;;;;;;4589720;19;19994;-34
2022/06/10 01:15:22;;;;;;;;;;;17.30;99.90;;;;;;4589440;19;19942;-32
2022/06/10 01:16:55;;;;;;;;;;;17.30;99.90;;;;;;4588885;19;19929;-34
2022/06/10 01:18:44;;;;;;;;;;;17.40;99.90;;;;;;4589331;19;19929;-34
2022/06/10 01:20:34;;;;;;;;;;;17.30;99.90;;;;;;4589491;19;20325;-32
2022/06/10 01:22:13;;;;;;;;;;;17.30;99.90;;;;;;4588989;19;19936;-34
2022/06/10 01:24:03;;;;;;;;;;;17.30;99.90;;;;;;4589648;19;19975;-34
2022/06/10 01:25:49;;;;;;;;;;;17.30;99.90;;;;;;4589237;19;20328;-34
2022/06/10 01:27:48;;;;;;;;;;;17.30;99.90;;;;;;4586613;19;19923;-32
2022/06/10 01:29:21;;;;;;;;;;;17.30;99.90;;;;;;4586920;19;19911;-33
2022/06/10 01:30:58;;;;;;;;;;;17.30;99.90;;;;;;4587213;19;19944;-33
2022/06/10 01:32:29;;;;;;;;;;;17.30;99.90;;;;;;4587370;19;20329;-34
2022/06/10 01:34:19;;;;;;;;;;;17.30;99.90;;;;;;4588872;19;19947;-34
2022/06/10 01:36:08;;;;;;;;;;;17.30;99.90;;;;;;4588557;19;19978;-32
2022/06/10 01:37:46;;;;;;;;;;;17.30;99.90;;;;;;4588683;19;20328;-32
2022/06/10 01:39:29;;;;;;;;;;;17.30;99.90;;;;;;4588990;19;19919;-34
2022/06/10 01:41:06;;;;;;;;;;;17.20;99.90;;;;;;4588967;19;20363;-34
2022/06/10 01:42:58;;;;;;;;;;;17.20;99.90;;;;;;4588783;19;19915;-32
2022/06/10 01:44:32;;;;;;;;;;;17.20;99.90;;;;;;4588212;19;19974;-33
2022/06/10 01:46:03;;;;;;;;;;;17.20;99.90;;;;;;4588944;19;19914;-33
2022/06/10 01:47:36;;;;;;;;;;;17.30;99.90;;;;;;4587423;19;19935;-33
2022/06/10 01:49:10;;;;;;;;;;;17.30;99.90;;;;;;4589441;19;19915;-34
2022/06/10 01:50:45;;;;;;;;;;;17.20;99.90;;;;;;4588561;19;19938;-33
2022/06/10 01:52:19;;;;;;;;;;;17.30;99.90;;;;;;4586559;19;20009;-32
2022/06/10 01:53:53;;;;;;;;;;;17.30;99.90;;;;;;4588951;19;19952;-34
2022/06/10 01:55:26;;;;;;;;;;;17.30;99.90;;;;;;4589221;19;19926;-32
2022/06/10 01:56:57;;;;;;;;;;;17.30;99.90;;;;;;4588435;19;19930;-32
2022/06/10 01:58:34;;;;;;;;;;;17.30;99.90;;;;;;4588608;19;20372;-33
2022/06/10 02:00:18;;;;;;;;;;;17.30;99.90;;;;;;4588749;19;19919;-33
2022/06/10 02:01:56;;;;;;;;;;;17.30;99.90;;;;;;4588378;19;19926;-32
2022/06/10 02:03:29;;;;;;;;;;;17.20;99.90;;;;;;4589230;19;19923;-33
2022/06/10 02:05:06;;;;;;;;;;;17.20;99.90;;;;;;4588530;19;20408;-32
2022/06/10 02:06:39;;;;;;;;;;;17.30;99.90;;;;;;4588792;19;19929;-32
2022/06/10 02:08:12;;;;;;;;;;;17.20;99.90;;;;;;4588646;19;19911;-34
2022/06/10 02:09:46;;;;;;;;;;;17.30;99.90;;;;;;4588684;19;19915;-33
2022/06/10 02:11:18;;;;;;;;;;;17.20;99.90;;;;;;4588562;19;19915;-34
2022/06/10 02:12:50;;;;;;;;;;;17.30;99.90;;;;;;4588468;19;19919;-32
2022/06/10 02:14:23;;;;;;;;;;;17.30;99.90;;;;;;4588962;19;19930;-32
2022/06/10 02:15:55;;;;;;;;;;;17.30;99.90;;;;;;4588181;19;19915;-32
2022/06/10 02:17:27;;;;;;;;;;;17.30;99.90;;;;;;4588021;19;19915;-32
2022/06/10 02:19:04;;;;;;;;;;;17.30;99.90;;;;;;4588494;19;20240;-33
2022/06/10 02:20:36;;;;;;;;;;;17.20;99.90;;;;;;4588039;19;19923;-33
2022/06/10 02:22:11;;;;;;;;;;;17.20;99.90;;;;;;4589974;19;19917;-34
2022/06/10 02:23:43;;;;;;;;;;;17.20;99.90;;;;;;4589395;19;19926;-34
2022/06/10 02:25:16;;;;;;;;;;;17.20;99.90;;;;;;4589337;19;19914;-33
2022/06/10 02:26:47;;;;;;;;;;;17.30;99.90;;;;;;4589034;19;20249;-32
2022/06/10 02:28:20;;;;;;;;;;;17.30;99.90;;;;;;4589754;19;19986;-34
2022/06/10 02:30:04;;;;;;;;;;;17.30;99.90;;;;;;4589165;19;19910;-34
2022/06/10 02:31:45;;;;;;;;;;;17.30;99.90;;;;;;4590073;19;19915;-32
2022/06/10 02:33:16;;;;;;;;;;;17.30;99.90;;;;;;4590415;19;19919;-32
2022/06/10 02:34:47;;;;;;;;;;;17.30;99.90;;;;;;4594066;19;19971;-34
2022/06/10 02:36:23;;;;;;;;;;;17.30;99.90;;;;;;4594521;19;20324;-32
2022/06/10 02:37:57;;;;;;;;;;;17.30;99.90;;;;;;4593742;19;19918;-33
2022/06/10 02:39:31;;;;;;;;;;;17.30;99.90;;;;;;4594347;19;19911;-33
2022/06/10 02:41:05;;;;;;;;;;;17.30;99.90;;;;;;4595417;19;19918;-32
2022/06/10 02:43:03;;;;;;;;;;;17.30;99.90;;;;;;4594489;19;19922;-32
2022/06/10 02:44:45;;;;;;;;;;;17.30;99.90;;;;;;4592267;19;19929;-34
2022/06/10 02:46:18;;;;;;;;;;;17.30;99.90;;;;;;4592464;19;19919;-34
2022/06/10 02:48:07;;;;;;;;;;;17.30;99.90;;;;;;4590572;19;20002;-34
2022/06/10 02:49:38;;;;;;;;;;;17.30;99.90;;;;;;4592600;19;19933;-32
2022/06/10 02:51:09;;;;;;;;;;;17.30;99.90;;;;;;4592099;19;19911;-33
2022/06/10 02:52:40;;;;;;;;;;;17.30;99.90;;;;;;4592247;19;19941;-32
2022/06/10 02:54:32;;;;;;;;;;;17.30;99.90;;;;;;4592269;19;19915;-34
2022/06/10 02:56:13;;;;;;;;;;;17.30;99.90;;;;;;4591860;19;19994;-34
2022/06/10 03:01:38;;;;;;;;;;;17.30;99.90;;;;;;4592179;19;19915;-33
2022/06/10 03:03:19;;;;;;;;;;;17.30;99.90;;;;;;4592152;19;20026;-34
2022/06/10 03:07:04;;;;;;;;;;;17.30;99.90;;;;;;4591336;19;20343;-32
2022/06/10 03:08:36;;;;;;;;;;;17.30;99.90;;;;;;4591751;19;20263;-32
2022/06/10 03:10:17;;;;;;;;;;;17.30;99.90;;;;;;4592646;19;19911;-33
2022/06/10 03:11:54;;;;;;;;;;;17.30;99.90;;;;;;4591624;19;19926;-32
2022/06/10 03:13:28;;;;;;;;;;;17.30;99.90;;;;;;4591816;19;19919;-32
2022/06/10 03:15:14;;;;;;;;;;;17.30;99.90;;;;;;4591573;19;20293;-33
2022/06/10 03:16:47;;;;;;;;;;;17.30;99.90;;;;;;4591821;19;19919;-33
2022/06/10 03:18:18;;;;;;;;;;;17.40;99.90;;;;;;4591590;19;19918;-32
2022/06/10 03:19:57;;;;;;;;;;;17.40;99.90;;;;;;4591918;19;19926;-33
2022/06/10 03:21:32;;;;;;;;;;;17.40;99.90;;;;;;4591693;19;19915;-33
2022/06/10 03:23:12;;;;;;;;;;;17.40;99.90;;;;;;4592313;19;20329;-34
2022/06/10 03:24:53;;;;;;;;;;;17.40;99.90;;;;;;4591718;19;20426;-32
2022/06/10 03:26:33;;;;;;;;;;;17.40;99.90;;;;;;4591625;19;19907;-34
2022/06/10 03:28:23;;;;;;;;;;;17.30;99.90;;;;;;4591569;19;19986;-33
2022/06/10 03:30:04;;;;;;;;;;;17.30;99.90;;;;;;4591911;19;19919;-32
2022/06/10 03:31:35;;;;;;;;;;;17.30;99.90;;;;;;4591631;19;19915;-33
2022/06/10 03:33:21;;;;;;;;;;;17.40;99.90;;;;;;4592092;19;19914;-34
2022/06/10 03:34:57;;;;;;;;;;;17.30;99.90;;;;;;4591406;19;19953;-32
2022/06/10 03:36:33;;;;;;;;;;;17.30;99.90;;;;;;4591384;19;19925;-33
2022/06/10 03:38:04;;;;;;;;;;;17.40;99.90;;;;;;4592270;19;19925;-33
2022/06/10 03:39:36;;;;;;;;;;;17.30;99.90;;;;;;4592992;19;19918;-32
2022/06/10 03:41:07;;;;;;;;;;;17.40;99.90;;;;;;4593086;19;20335;-34
2022/06/10 03:42:37;;;;;;;;;;;17.40;99.90;;;;;;4592564;19;19995;-33
2022/06/10 03:44:12;;;;;;;;;;;17.40;99.90;;;;;;4593360;19;19974;-33
2022/06/10 03:45:45;;;;;;;;;;;17.40;99.90;;;;;;4593051;19;19922;-33
2022/06/10 03:47:20;;;;;;;;;;;17.40;99.90;;;;;;4589852;19;19925;-32
2022/06/10 03:48:51;;;;;;;;;;;17.40;99.90;;;;;;4591271;19;19910;-34
2022/06/10 03:50:24;;;;;;;;;;;17.40;99.90;;;;;;4593223;19;19919;-32
2022/06/10 03:51:55;;;;;;;;;;;17.40;99.90;;;;;;4593584;19;19945;-33
2022/06/10 03:53:26;;;;;;;;;;;17.40;99.90;;;;;;4593555;19;19942;-32
2022/06/10 03:54:57;;;;;;;;;;;17.40;99.90;;;;;;4593592;19;19919;-32
2022/06/10 03:56:30;;;;;;;;;;;17.40;99.90;;;;;;4593647;19;19982;-33
2022/06/10 03:58:01;;;;;;;;;;;17.40;99.90;;;;;;4593840;19;19970;-32
2022/06/10 03:59:32;;;;;;;;;;;17.40;99.90;;;;;;4593272;19;19918;-32
2022/06/10 04:01:04;;;;;;;;;;;17.40;99.90;;;;;;4593394;19;19941;-34
2022/06/10 04:02:35;;;;;;;;;;;17.50;99.90;;;;;;4593654;19;19938;-33
2022/06/10 04:04:06;;;;;;;;;;;17.40;99.90;;;;;;4590842;19;20350;-32
2022/06/10 04:05:37;;;;;;;;;;;17.40;99.90;;;;;;4592216;19;19926;-33
2022/06/10 04:07:09;;;;;;;;;;;17.40;99.90;;;;;;4590017;19;20042;-33
2022/06/10 04:08:40;;;;;;;;;;;17.50;99.90;;;;;;4592648;19;19938;-33
2022/06/10 04:10:19;;;;;;;;;;;17.50;99.90;;;;;;4592671;19;19915;-32
2022/06/10 04:11:50;;;;;;;;;;;17.50;99.90;;;;;;4591500;19;20328;-32
2022/06/10 04:13:21;;;;;;;;;;;17.50;99.90;;;;;;4592552;19;19911;-33
2022/06/10 04:14:52;;;;;;;;;;;17.50;99.90;;;;;;4593521;19;19915;-32
2022/06/10 04:16:23;;;;;;;;;;;17.50;99.90;;;;;;4591676;19;19914;-32
2022/06/10 04:17:55;;;;;;;;;;;17.50;99.90;;;;;;4591886;19;19917;-33
2022/06/10 04:19:26;;;;;;;;;;;17.50;99.90;;;;;;4592539;19;20271;-33
2022/06/10 04:20:57;;;;;;;;;;;17.50;99.90;;;;;;4592616;19;19918;-33
2022/06/10 04:22:28;;;;;;;;;;;17.50;99.90;;;;;;4592670;19;19970;-32
2022/06/10 04:23:59;;;;;;;;;;;17.50;99.90;;;;;;4592401;19;19911;-33
2022/06/10 04:25:30;;;;;;;;;;;17.50;99.90;;;;;;4593469;19;20307;-34
2022/06/10 04:27:02;;;;;;;;;;;17.50;99.90;;;;;;4593767;19;20359;-34
2022/06/10 04:28:33;;;;;;;;;;;17.50;99.90;;;;;;4594804;19;19935;-32
2022/06/10 04:30:04;;;;;;;;;;;17.50;99.90;;;;;;4593891;19;20279;-34
2022/06/10 04:31:35;;;;;;;;;;;17.50;99.90;;;;;;4594614;19;19919;-32
2022/06/10 04:33:06;;;;;;;;;;;17.50;99.90;;;;;;4593636;19;19925;-33
2022/06/10 04:34:37;;;;;;;;;;;17.50;99.90;;;;;;4594178;19;19930;-31
2022/06/10 04:36:09;;;;;;;;;;;17.60;99.90;;;;;;4593035;19;19922;-33
2022/06/10 04:37:39;;;;;;;;;;;17.60;99.90;;;;;;4592428;19;19929;-32
2022/06/10 04:39:10;;;;;;;;;;;17.50;99.90;;;;;;4591717;19;20253;-33
2022/06/10 04:40:42;;;;;;;;;;;17.60;99.90;;;;;;4591646;19;20267;-32
2022/06/10 04:42:13;;;;;;;;;;;17.60;99.90;;;;;;4594620;19;19915;-32
2022/06/10 04:43:43;;;;;;;;;;;17.60;99.90;;;;;;4592336;19;19929;-33
2022/06/10 04:45:15;;;;;;;;;;;17.60;99.90;;;;;;4591889;19;19941;-31
2022/06/10 04:46:46;;;;;;;;;;;17.60;99.90;;;;;;4591518;19;19974;-33
2022/06/10 04:48:17;;;;;;;;;;;17.60;99.90;;;;;;4591425;19;19942;-33
2022/06/10 04:49:48;;;;;;;;;;;17.60;99.90;;;;;;4591350;19;19926;-32
2022/06/10 04:51:19;;;;;;;;;;;17.70;99.90;;;;;;4586997;19;20247;-33
2022/06/10 04:52:51;;;;;;;;;;;17.60;99.90;;;;;;4590915;19;19932;-32
2022/06/10 04:54:22;;;;;;;;;;;17.60;99.90;;;;;;4590645;19;20279;-33
2022/06/10 04:55:54;;;;;;;;;;;17.60;99.90;;;;;;4586767;19;19919;-32
2022/06/10 04:57:25;;;;;;;;;;;17.60;99.90;;;;;;4586244;19;19923;-33
2022/06/10 04:58:56;;;;;;;;;;;17.60;99.90;;;;;;4587489;19;19935;-33
2022/06/10 05:00:31;;;;;;;;;;;17.60;99.90;;;;;;4589450;19;20336;-30
2022/06/10 05:02:02;;;;;;;;;;;17.60;99.90;;;;;;4589040;19;19936;-33
2022/06/10 05:03:34;;;;;;;;;;;17.70;99.90;;;;;;4589442;19;20311;-33
2022/06/10 05:05:07;;;;;;;;;;;17.60;99.90;;;;;;4591248;19;19915;-33
2022/06/10 05:06:37;;;;;;;;;;;17.60;99.90;;;;;;4591328;19;19919;-33
2022/06/10 05:08:10;;;;;;;;;;;17.60;99.90;;;;;;4589033;19;19943;-33
2022/06/10 05:09:41;;;;;;;;;;;17.60;99.90;;;;;;4588964;19;20309;-33
2022/06/10 05:11:12;;;;;;;;;;;17.60;99.90;;;;;;4590157;19;19922;-34
2022/06/10 05:12:46;;;;;;;;;;;17.50;99.90;;;;;;4589944;19;19926;-33
2022/06/10 05:14:17;;;;;;;;;;;17.50;99.90;;;;;;4591145;19;19911;-32
2022/06/10 05:15:48;;;;;;;;;;;17.50;99.90;;;;;;4591829;19;19918;-34
2022/06/10 05:17:20;;;;;;;;;;;17.40;99.90;;;;;;4591911;19;19914;-34
2022/06/10 05:18:51;;;;;;;;;;;17.40;99.90;;;;;;4591074;19;19974;-34
2022/06/10 05:20:23;;;;;;;;;;;17.40;99.90;;;;;;4588923;19;19922;-32
2022/06/10 05:21:54;;;;;;;;;;;17.40;99.90;;;;;;4589180;19;19941;-32
2022/06/10 05:23:25;;;;;;;;;;;17.30;99.90;;;;;;4590746;19;20249;-33
2022/06/10 05:24:56;;;;;;;;;;;17.30;99.90;;;;;;4591851;19;19926;-33
2022/06/10 05:26:29;;;;;;;;;;;17.30;99.90;;;;;;4589999;19;19974;-32
2022/06/10 05:28:00;;;;;;;;;;;17.30;99.90;;;;;;4590406;19;19953;-33
2022/06/10 05:29:31;;;;;;;;;;;17.20;99.90;;;;;;4591011;19;19915;-31
2022/06/10 05:31:02;;;;;;;;;;;17.20;99.90;;;;;;4591128;19;19919;-31
2022/06/10 05:32:33;;;;;;;;;;;17.20;99.90;;;;;;4590958;19;19919;-31
2022/06/10 05:35:54;;;;;;;;;;;17.10;99.90;;;;;;4590477;19;19978;-34
2022/06/10 05:37:25;;;;;;;;;;;17.10;99.90;;;;;;4593305;19;19935;-32
2022/06/10 05:38:56;;;;;;;;;;;17.10;99.90;;;;;;4591713;19;19974;-33
2022/06/10 05:40:27;;;;;;;;;;;17.00;99.90;;;;;;4591402;19;19915;-32
2022/06/10 05:42:04;;;;;;;;;;;17.00;99.90;;;;;;4591324;19;19922;-32
2022/06/10 05:43:35;;;;;;;;;;;17.00;99.90;;;;;;4591072;19;19919;-30
2022/06/10 05:45:06;;;;;;;;;;;16.90;99.90;;;;;;4591340;19;19915;-32
2022/06/10 05:46:37;;;;;;;;;;;16.90;99.90;;;;;;4591776;19;19921;-31
2022/06/10 05:48:11;;;;;;;;;;;16.90;99.90;;;;;;4589518;19;19982;-34
2022/06/10 05:49:43;;;;;;;;;;;16.90;99.90;;;;;;4590011;19;19949;-31
2022/06/10 05:51:14;;;;;;;;;;;16.90;99.90;;;;;;4590799;19;19951;-31
2022/06/10 05:52:44;;;;;;;;;;;16.80;99.90;;;;;;4591843;19;19911;-30
2022/06/10 05:54:16;;;;;;;;;;;16.80;99.90;;;;;;4589674;19;19922;-32
2022/06/10 05:55:47;;;;;;;;;;;16.70;99.90;;;;;;4592180;19;19919;-34
2022/06/10 05:57:17;;;;;;;;;;;16.70;99.90;;;;;;4591618;19;19922;-33
2022/06/10 05:58:48;;;;;;;;;;;16.70;99.90;;;;;;4589961;19;19922;-33
2022/06/10 06:00:25;;;;;;;;;;;16.70;99.90;;;;;;4590426;19;20349;-33
2022/06/10 06:01:56;;;;;;;;;;;16.70;99.90;;;;;;4589963;19;20344;-32
2022/06/10 06:03:27;;;;;;;;;;;16.60;99.90;;;;;;4590917;19;19923;-34
2022/06/10 06:04:58;;;;;;;;;;;16.60;99.90;;;;;;4591061;19;19944;-33
2022/06/10 06:06:29;;;;;;;;;;;16.60;99.90;;;;;;4590896;19;20613;-33
2022/06/10 06:08:00;;;;;;;;;;;16.60;99.90;;;;;;4590058;19;19989;-34
2022/06/10 06:09:31;;;;;;;;;;;16.60;99.90;;;;;;4595018;19;19915;-33
2022/06/10 06:11:02;;;;;;;;;;;16.50;99.90;;;;;;4592899;19;20022;-33
2022/06/10 06:12:34;;;;;;;;;;;16.60;99.90;;;;;;4593842;19;19922;-33
2022/06/10 06:14:05;;;;;;;;;;;16.60;99.90;;;;;;4597385;19;19919;-32
2022/06/10 06:15:38;;;;;;;;;;;16.50;99.90;;;;;;4595957;19;19918;-32
2022/06/10 06:17:09;;;;;;;;;;;16.50;99.90;;;;;;4594019;19;19923;-32
2022/06/10 06:18:41;;;;;;;;;;;16.50;99.90;;;;;;4594043;19;19915;-30
2022/06/10 06:20:13;;;;;;;;;;;16.40;99.90;;;;;;4594781;19;19931;-32
2022/06/10 06:21:44;;;;;;;;;;;16.50;99.90;;;;;;4595326;19;19915;-32
2022/06/10 06:23:15;;;;;;;;;;;16.50;99.90;;;;;;4595215;19;19915;-33
2022/06/10 06:24:46;;;;;;;;;;;16.50;99.90;;;;;;4594324;19;19945;-33
2022/06/10 06:26:17;;;;;;;;;;;16.50;99.90;;;;;;4594750;19;20004;-33
2022/06/10 06:27:48;;;;;;;;;;;16.50;99.90;;;;;;4593529;19;20359;-33
2022/06/10 06:29:20;;;;;;;;;;;16.40;99.90;;;;;;4595258;19;20113;-33
2022/06/10 06:30:51;;;;;;;;;;;16.50;99.90;;;;;;4593943;19;19911;-32
2022/06/10 06:32:22;;;;;;;;;;;16.50;99.90;;;;;;4595089;19;19937;-33
2022/06/10 06:33:53;;;;;;;;;;;16.50;99.90;;;;;;4594804;19;19911;-33
2022/06/10 06:35:24;;;;;;;;;;;16.50;99.90;;;;;;4593885;19;19929;-32
2022/06/10 06:36:55;;;;;;;;;;;16.40;99.90;;;;;;4594570;19;19998;-32
2022/06/10 06:38:27;;;;;;;;;;;16.40;99.90;;;;;;4594265;19;19918;-32
2022/06/10 06:39:57;;;;;;;;;;;16.50;99.90;;;;;;4593640;19;19919;-33
2022/06/10 06:41:28;;;;;;;;;;;16.50;99.90;;;;;;4594580;19;19919;-33
2022/06/10 06:43:00;;;;;;;;;;;16.40;99.90;;;;;;4594977;19;19963;-31
2022/06/10 06:44:31;;;;;;;;;;;16.40;99.90;;;;;;4594661;19;19911;-31
2022/06/10 06:46:02;;;;;;;;;;;16.50;99.90;;;;;;4594855;19;19937;-33
2022/06/10 06:47:33;;;;;;;;;;;16.50;99.90;;;;;;4593441;19;19935;-33
2022/06/10 06:49:07;;;;;;;;;;;16.40;99.90;;;;;;4595432;19;19911;-32
2022/06/10 06:50:42;;;;;;;;;;;16.50;99.90;;;;;;4594758;19;19923;-33
2022/06/10 06:52:14;;;;;;;;;;;16.50;99.90;;;;;;4593220;19;20240;-33
2022/06/10 06:53:44;;;;;;;;;;;16.50;99.90;;;;;;4594663;19;19915;-33
2022/06/10 06:55:16;;;;;;;;;;;16.50;99.90;;;;;;4595163;19;20325;-33
2022/06/10 06:56:47;;;;;;;;;;;16.50;99.90;;;;;;4594406;19;19929;-33
2022/06/10 06:58:18;;;;;;;;;;;16.50;99.90;;;;;;4593664;19;19923;-33
2022/06/10 06:59:50;;;;;;;;;;;16.50;99.90;;;;;;4593742;19;20625;-33
2022/06/10 07:01:21;;;;;;;;;;;16.50;99.90;;;;;;4594016;19;20336;-33
2022/06/10 07:02:52;;;;;;;;;;;16.60;99.90;;;;;;4594822;19;19922;-33
2022/06/10 07:04:23;;;;;;;;;;;16.50;99.90;;;;;;4595408;19;19922;-33
2022/06/10 07:05:54;;;;;;;;;;;16.60;99.90;;;;;;4594002;19;19919;-33
2022/06/10 07:07:25;;;;;;;;;;;16.60;99.90;;;;;;4593133;19;19919;-30
2022/06/10 07:08:56;;;;;;;;;;;16.60;99.90;;;;;;4594311;19;19975;-31
2022/06/10 07:10:27;;;;;;;;;;;16.60;99.90;;;;;;4594317;19;19918;-33
2022/06/10 07:11:58;;;;;;;;;;;16.60;99.90;;;;;;4594104;19;19918;-33
2022/06/10 07:13:29;;;;;;;;;;;16.60;99.90;;;;;;4594016;19;19915;-32
2022/06/10 07:15:00;;;;;;;;;;;16.60;99.90;;;;;;4594420;19;19922;-33
2022/06/10 07:16:31;;;;;;;;;;;16.60;99.90;;;;;;4594198;19;19918;-30
2022/06/10 07:18:02;;;;;;;;;;;16.60;99.90;;;;;;4594021;19;19915;-33
2022/06/10 07:19:33;;;;;;;;;;;16.60;99.90;;;;;;4590397;19;19922;-32
2022/06/10 07:21:04;;;;;;;;;;;16.60;99.90;;;;;;4593455;19;19914;-33
2022/06/10 07:22:35;;;;;;;;;;;16.70;99.90;;;;;;4592824;19;20300;-33
2022/06/10 07:24:06;;;;;;;;;;;16.60;99.90;;;;;;4593526;19;19915;-32
2022/06/10 07:25:38;;;;;;;;;;;16.70;99.90;;;;;;4594150;19;20309;-32
2022/06/10 07:27:09;;;;;;;;;;;16.70;99.90;;;;;;4592184;19;19943;-32
2022/06/10 07:28:40;;;;;;;;;;;16.60;99.90;;;;;;4595522;19;19918;-33
2022/06/10 07:30:12;;;;;;;;;;;16.70;99.90;;;;;;4593363;19;19918;-33
2022/06/10 07:31:45;;;;;;;;;;;16.70;99.90;;;;;;4592426;19;19938;-33
2022/06/10 07:33:17;;;;;;;;;;;16.70;99.90;;;;;;4595193;19;20356;-33
2022/06/10 07:34:48;;;;;;;;;;;16.80;99.90;;;;;;4593657;19;19919;-33
2022/06/10 07:36:18;;;;;;;;;;;16.80;99.90;;;;;;4593608;19;19984;-34
2022/06/10 07:37:50;;;;;;;;;;;16.80;99.90;;;;;;4593628;19;19937;-32
2022/06/10 07:39:21;;;;;;;;;;;16.90;99.90;;;;;;4594316;19;19919;-32
2022/06/10 07:42:43;;;;;;;;;;;17.30;99.90;;;;;;4590506;19;20284;-32
2022/06/10 07:44:20;;;;;;;;;;;17.50;99.90;;;;;;4593648;19;19929;-34
2022/06/10 07:45:51;;;;;;;;;;;17.70;99.90;;;;;;4593881;19;19919;-32
2022/06/10 07:47:22;;;;;;;;;;;17.80;99.90;;;;;;4595347;19;19942;-34
2022/06/10 07:48:53;;;;;;;;;;;17.90;99.90;;;;;;4593991;19;20332;-32
2022/06/10 07:50:24;;;;;;;;;;;18.00;99.90;;;;;;4592835;19;19985;-31
2022/06/10 07:51:55;;;;;;;;;;;18.10;99.90;;;;;;4593092;19;19944;-34
2022/06/10 07:53:29;;;;;;;;;;;18.20;99.90;;;;;;4594460;19;19919;-32
2022/06/10 07:55:00;;;;;;;;;;;18.20;99.90;;;;;;4593533;19;19918;-32
2022/06/10 07:56:31;;;;;;;;;;;18.30;99.90;;;;;;4594021;19;19989;-32
2022/06/10 07:58:03;;;;;;;;;;;18.40;99.90;;;;;;4594610;19;19926;-31
2022/06/10 07:59:34;;;;;;;;;;;18.40;99.90;;;;;;4596145;19;19915;-33
2022/06/10 08:01:05;;;;;;;;;;;18.40;99.90;;;;;;4591871;19;19991;-31
2022/06/10 08:02:37;;;;;;;;;;;18.50;99.90;;;;;;4594180;19;20352;-33
2022/06/10 08:04:08;;;;;;;;;;;18.50;99.90;;;;;;4594478;19;19979;-34
2022/06/10 08:05:40;;;;;;;;;;;18.60;99.90;;;;;;4593825;19;19910;-33
2022/06/10 08:07:11;;;;;;;;;;;18.60;99.90;;;;;;4593057;19;19923;-32
2022/06/10 08:08:42;;;;;;;;;;;18.60;99.90;;;;;;4594035;19;19918;-33
2022/06/10 08:10:31;;;;;;;;;;;18.60;99.90;;;;;;4593529;19;19922;-32
2022/06/10 08:12:03;;;;;;;;;;;18.60;99.90;;;;;;4592834;19;19926;-33
2022/06/10 08:13:34;;;;;;;;;;;18.60;99.90;;;;;;4594914;19;19936;-33
2022/06/10 08:15:05;;;;;;;;;;;18.60;99.90;;;;;;4589450;19;20009;-34
2022/06/10 08:16:36;;;;;;;;;;;18.60;99.90;;;;;;4590663;19;19940;-32
2022/06/10 08:18:07;;;;;;;;;;;18.70;99.90;;;;;;4590254;19;20367;-32
2022/06/10 08:19:39;;;;;;;;;;;18.70;99.90;;;;;;4590218;19;20274;-34
2022/06/10 08:23:00;;;;;;;;;;;18.70;99.90;;;;;;4592453;19;20034;-33
2022/06/10 08:24:31;;;;;;;;;;;18.70;99.90;;;;;;4592985;19;19964;-33
2022/06/10 08:26:03;;;;;;;;;;;18.70;99.90;;;;;;4590279;19;19923;-33
2022/06/10 08:27:35;;;;;;;;;;;18.70;99.90;;;;;;4589482;19;19922;-33
2022/06/10 08:29:07;;;;;;;;;;;18.70;99.90;;;;;;4592370;19;19915;-33
2022/06/10 08:30:38;;;;;;;;;;;18.80;99.90;;;;;;4591716;19;20349;-32
2022/06/10 08:32:09;;;;;;;;;;;18.90;99.90;;;;;;4588233;19;19982;-33
2022/06/10 08:33:40;;;;;;;;;;;18.90;99.90;;;;;;4591844;19;20376;-32
2022/06/10 08:35:11;;;;;;;;;;;18.90;99.90;;;;;;4592335;19;19929;-34
2022/06/10 08:36:42;;;;;;;;;;;18.90;99.90;;;;;;4592535;19;19914;-32
2022/06/10 08:38:14;;;;;;;;;;;18.90;99.90;;;;;;4589878;19;20258;-33
2022/06/10 08:39:46;;;;;;;;;;;18.90;99.90;;;;;;4589748;19;20471;-33
2022/06/10 08:41:42;;;;;;;;;;;19.00;99.90;;;;;;4590239;19;19915;-32
2022/06/10 08:43:20;;;;;;;;;;;19.00;99.90;;;;;;4589901;19;19919;-32
2022/06/10 08:44:55;;;;;;;;;;;19.00;99.90;;;;;;4590013;19;19929;-33
2022/06/10 08:46:35;;;;;;;;;;;19.00;99.90;;;;;;4593066;19;20268;-32
2022/06/10 08:48:06;;;;;;;;;;;19.00;99.90;;;;;;4590524;19;19941;-33
2022/06/10 08:49:40;;;;;;;;;;;19.00;99.90;;;;;;4591858;19;19927;-34
2022/06/10 08:51:15;;;;;;;;;;;19.00;99.90;;;;;;4593820;19;20367;-32
2022/06/10 08:53:06;;;;;;;;;;;19.10;99.90;;;;;;4594653;19;19930;-33
2022/06/10 08:54:43;;;;;;;;;;;19.10;99.90;;;;;;4591965;19;19930;-33
2022/06/10 08:56:16;;;;;;;;;;;19.10;99.90;;;;;;4589818;19;20862;-33
2022/06/10 08:57:47;;;;;;;;;;;19.10;99.90;;;;;;4594572;19;19941;-33
2022/06/10 08:59:29;;;;;;;;;;;19.10;99.90;;;;;;4589070;19;19975;-33
2022/06/10 09:01:01;;;;;;;;;;;19.20;99.90;;;;;;4592762;19;20325;-34
2022/06/10 09:02:37;;;;;;;;;;;19.20;99.90;;;;;;4591518;19;19922;-32
2022/06/10 09:04:17;;;;;;;;;;;19.20;99.90;;;;;;4591755;19;19969;-32
2022/06/10 09:05:50;;;;;;;;;;;19.20;99.90;;;;;;4592484;19;19918;-34
2022/06/10 09:07:26;;;;;;;;;;;19.20;99.90;;;;;;4592298;19;19938;-34
2022/06/10 09:09:00;;;;;;;;;;;19.30;99.90;;;;;;4592330;19;19919;-34
2022/06/10 09:10:38;;;;;;;;;;;19.40;99.90;;;;;;4590549;19;19926;-34
2022/06/10 09:12:14;;;;;;;;;;;19.40;99.90;;;;;;4591199;19;20323;-32
2022/06/10 09:14:03;;;;;;;;;;;19.50;99.90;;;;;;4592764;19;19929;-33
2022/06/10 09:15:36;;;;;;;;;;;19.50;99.90;;;;;;4593317;19;19923;-32
2022/06/10 09:17:10;;;;;;;;;;;19.50;99.90;;;;;;4590636;19;19934;-34